Culver, Oregon
Current Conditions -  °F | °C
As of 8:56 AM on Friday 28 Nov 2014 (Local Time) from KRDM Reporting Station
Light Rain Light Rain  
Wind Chill: 37°   Ceiling: 5500
Heat Index: 45°   Visibility: 9mi
Dew Point: 37°   Wind: 22mph
Humidity: 74%   Direction: 200°SSW
Pressure: 29.73"   Gusts: 28mph
Location:  44.53°N, 121.21°W
Report Text: KRDM 281656Z 20019G24KT 9SM -RA BKN055 OVC070 07/03 A2973 RMK AO2 RAB42 SLP065 P0001 T00720028
Loading
Personal Weather Stations






























Interactive Weather Map New forecast layout! Learn more

10-Day Weather Forecast

Advertisements
Track Severe Weather on mobile